createdAt,value
2018-04-14T00:02:16.679Z,3.73
2018-04-14T00:04:43.713Z,3.40
2018-04-14T00:07:11.029Z,3.03
2018-04-14T00:09:38.217Z,3.73
2018-04-14T00:12:06.185Z,3.00
2018-04-14T00:14:33.537Z,2.97
2018-04-14T00:17:00.648Z,2.37
2018-04-14T00:19:27.787Z,2.10
2018-04-14T00:21:54.982Z,1.70
2018-04-14T00:24:22.153Z,1.30
2018-04-14T00:26:49.340Z,1.83
2018-04-14T00:29:16.524Z,1.47
2018-04-14T00:31:43.737Z,1.43
2018-04-14T00:34:10.850Z,2.20
2018-04-14T00:36:38.128Z,1.80
2018-04-14T00:39:06.122Z,2.03
2018-04-14T00:41:33.284Z,2.60
2018-04-14T00:44:00.428Z,1.77
2018-04-14T00:46:27.561Z,1.40
2018-04-14T00:48:54.697Z,1.80
2018-04-14T00:51:21.873Z,1.60
2018-04-14T00:53:49.199Z,1.80
2018-04-14T00:56:17.210Z,1.67
2018-04-14T00:58:45.115Z,1.10
2018-04-14T01:01:12.229Z,1.53
2018-04-14T01:03:39.456Z,1.50
2018-04-14T01:06:06.877Z,2.17
2018-04-14T01:08:34.017Z,1.63
2018-04-14T01:11:01.170Z,1.50
2018-04-14T01:13:28.537Z,1.97
2018-04-14T01:15:55.673Z,1.50
2018-04-14T01:18:22.864Z,1.63
2018-04-14T01:20:49.959Z,2.00
2018-04-14T01:23:17.412Z,1.73
2018-04-14T01:25:44.735Z,1.80
2018-04-14T01:28:12.066Z,1.80
2018-04-14T01:30:39.228Z,2.20
2018-04-14T01:33:06.338Z,1.37
2018-04-14T01:35:33.475Z,1.33
2018-04-14T01:38:00.579Z,1.90
2018-04-14T01:40:28.487Z,1.73
2018-04-14T01:42:55.694Z,1.60
2018-04-14T01:45:22.841Z,2.03
2018-04-14T01:47:49.892Z,1.47
2018-04-14T01:50:16.917Z,2.27
2018-04-14T01:52:44.726Z,1.40
2018-04-14T01:55:11.708Z,2.70
2018-04-14T01:57:39.499Z,1.83
2018-04-14T02:00:06.556Z,1.47
2018-04-14T02:02:33.580Z,1.73
2018-04-14T02:05:01.340Z,1.60
2018-04-14T02:07:28.816Z,2.07
2018-04-14T02:09:56.146Z,2.00
2018-04-14T02:12:23.320Z,2.23
2018-04-14T02:14:50.336Z,1.70
2018-04-14T02:17:18.114Z,1.87
2018-04-14T02:19:45.124Z,1.63
2018-04-14T02:22:12.111Z,1.60
2018-04-14T02:24:39.848Z,1.30
2018-04-14T02:27:07.604Z,1.60
2018-04-14T02:29:35.004Z,1.80
2018-04-14T02:32:02.160Z,2.17
2018-04-14T02:34:29.589Z,1.70
2018-04-14T02:36:56.695Z,1.70
2018-04-14T02:39:23.711Z,1.90
2018-04-14T02:41:50.795Z,1.30
2018-04-14T02:44:17.787Z,2.17
2018-04-14T02:46:44.787Z,1.70
2018-04-14T02:49:11.819Z,1.40
2018-04-14T02:51:39.256Z,1.40
2018-04-14T02:54:06.314Z,2.00
2018-04-14T02:56:33.316Z,1.90
2018-04-14T02:59:01.079Z,1.10
2018-04-14T03:01:28.878Z,1.63
2018-04-14T03:03:55.892Z,1.37
2018-04-14T03:06:22.921Z,2.13
2018-04-14T03:08:49.940Z,1.83
2018-04-14T03:11:16.984Z,1.77
2018-04-14T03:13:44.008Z,1.90
2018-04-14T03:16:11.009Z,1.60
2018-04-14T03:18:38.040Z,1.67
2018-04-14T03:21:05.031Z,2.17
2018-04-14T03:23:32.036Z,2.10
2018-04-14T03:25:59.091Z,2.07
2018-04-14T03:28:26.126Z,1.70
2018-04-14T03:30:53.178Z,2.03
2018-04-14T03:33:20.184Z,2.00
2018-04-14T03:35:47.183Z,2.73
2018-04-14T03:38:14.960Z,1.90
2018-04-14T03:40:42.980Z,1.87
2018-04-14T03:43:10.408Z,2.13
2018-04-14T03:45:37.440Z,2.17
2018-04-14T03:48:05.222Z,1.70
2018-04-14T03:50:32.541Z,2.07
2018-04-14T03:52:59.799Z,1.70
2018-04-14T03:55:26.984Z,2.07
2018-04-14T03:57:54.815Z,2.60
2018-04-14T04:00:21.936Z,2.10
2018-04-14T04:02:48.956Z,2.20
2018-04-14T04:05:15.966Z,2.10
2018-04-14T04:07:49.498Z,2.20
2018-04-14T04:10:16.509Z,2.13
2018-04-14T04:12:44.288Z,2.03
2018-04-14T04:15:12.038Z,1.60
2018-04-14T04:17:39.426Z,2.20
2018-04-14T04:20:19.657Z,1.90
2018-04-14T04:23:05.221Z,1.97
2018-04-14T04:25:39.929Z,1.67
2018-04-14T04:28:07.438Z,1.50
2018-04-14T04:30:34.763Z,1.80
2018-04-14T04:33:02.106Z,1.20
2018-04-14T04:35:30.185Z,1.50
2018-04-14T04:37:57.326Z,1.73
2018-04-14T04:40:25.273Z,1.50
2018-04-14T04:42:52.753Z,1.77
2018-04-14T04:45:19.844Z,2.30
2018-04-14T04:47:46.863Z,2.10
2018-04-14T04:50:14.296Z,1.70
2018-04-14T04:52:41.526Z,1.83
2018-04-14T04:55:08.742Z,1.70
2018-04-14T04:57:35.849Z,2.23
2018-04-14T05:00:02.944Z,2.20
2018-04-14T05:02:30.781Z,1.90
2018-04-14T05:04:58.557Z,2.20
2018-04-14T05:07:26.377Z,2.60
2018-04-14T05:09:53.651Z,2.73
2018-04-14T05:12:20.712Z,3.20
2018-04-14T05:14:48.020Z,2.60
2018-04-14T05:17:16.176Z,2.87
2018-04-14T05:19:43.323Z,3.30
2018-04-14T05:22:10.408Z,2.83
2018-04-14T05:24:37.921Z,3.00
2018-04-14T05:27:05.077Z,2.57
2018-04-14T05:29:32.212Z,2.93
2018-04-14T05:31:59.288Z,3.00
2018-04-14T05:34:26.582Z,3.00
2018-04-14T05:36:53.660Z,2.80
2018-04-14T05:39:21.104Z,2.93
2018-04-14T05:41:48.264Z,3.03
2018-04-14T05:44:16.030Z,2.50
2018-04-14T05:46:43.796Z,2.70
2018-04-14T05:49:11.158Z,2.30
2018-04-14T05:51:38.256Z,2.80
2018-04-14T05:54:05.288Z,3.13
2018-04-14T05:56:32.295Z,2.63
2018-04-14T05:58:59.597Z,3.10
2018-04-14T06:01:26.760Z,3.13
2018-04-14T06:03:53.756Z,2.33
2018-04-14T06:06:21.076Z,3.20
2018-04-14T06:08:49.268Z,3.10
2018-04-14T06:11:17.166Z,2.83
2018-04-14T06:13:44.169Z,1.90
2018-04-14T06:16:12.268Z,2.60
2018-04-14T06:18:39.457Z,2.43
2018-04-14T06:21:06.589Z,3.10
2018-04-14T06:23:33.737Z,2.47
2018-04-14T06:26:01.065Z,2.40
2018-04-14T06:28:28.325Z,2.70
2018-04-14T06:30:56.239Z,2.80
2018-04-14T06:33:24.204Z,2.87
2018-04-14T06:35:51.539Z,2.40
2018-04-14T06:38:18.703Z,2.90
2018-04-14T06:40:46.518Z,3.30
2018-04-14T06:43:14.503Z,2.43
2018-04-14T06:45:41.638Z,2.23
2018-04-14T06:48:08.695Z,2.83
2018-04-14T06:50:35.867Z,1.90
2018-04-14T06:53:03.526Z,1.80
2018-04-14T06:55:30.657Z,2.60
2018-04-14T06:57:58.068Z,2.10
2018-04-14T07:00:25.143Z,1.90
2018-04-14T07:02:53.076Z,1.60
2018-04-14T07:05:20.277Z,1.83
2018-04-14T07:07:47.387Z,1.97
2018-04-14T07:10:14.498Z,1.87
2018-04-14T07:12:41.784Z,1.77
2018-04-14T07:15:09.905Z,2.00
2018-04-14T07:17:37.102Z,1.67
2018-04-14T07:20:04.213Z,1.63
2018-04-14T07:22:31.325Z,1.50
2018-04-14T07:24:58.328Z,2.50
2018-04-14T07:27:25.745Z,1.90
2018-04-14T07:29:52.763Z,2.33
2018-04-14T07:32:20.175Z,2.40
2018-04-14T07:34:47.416Z,1.80
2018-04-14T07:37:14.889Z,1.90
2018-04-14T07:39:42.270Z,1.70
2018-04-14T07:42:09.573Z,1.30
2018-04-14T07:44:36.954Z,1.33
2018-04-14T07:47:04.049Z,1.43
2018-04-14T07:49:31.420Z,1.70
2018-04-14T07:51:58.675Z,1.80
2018-04-14T07:54:32.714Z,1.43
2018-04-14T07:56:59.817Z,1.60
2018-04-14T07:59:26.978Z,1.43
2018-04-14T08:01:54.084Z,1.43
2018-04-14T08:04:21.229Z,1.70
2018-04-14T08:06:49.041Z,1.77
2018-04-14T08:09:16.914Z,2.03
2018-04-14T08:11:44.025Z,1.17
2018-04-14T08:14:11.092Z,1.60
2018-04-14T08:16:38.310Z,1.63
2018-04-14T08:19:05.403Z,1.53
2018-04-14T08:21:32.517Z,1.70
2018-04-14T08:23:59.613Z,1.47
2018-04-14T08:26:26.756Z,2.43
2018-04-14T08:28:54.542Z,2.33
2018-04-14T08:31:21.581Z,1.50
2018-04-14T08:33:48.889Z,1.70
2018-04-14T08:36:16.029Z,5.03
2018-04-14T08:38:44.107Z,1.43
2018-04-14T08:41:11.214Z,0.90
2018-04-14T08:43:38.229Z,1.30
2018-04-14T08:46:06.533Z,1.90
2018-04-14T08:48:33.788Z,1.73
2018-04-14T08:51:01.001Z,1.40
2018-04-14T08:53:28.300Z,1.70
2018-04-14T08:55:55.384Z,1.53
2018-04-14T08:58:22.513Z,1.20
2018-04-14T09:00:49.556Z,1.10
2018-04-14T09:03:16.789Z,3.17
2018-04-14T09:05:44.529Z,1.50
2018-04-14T09:08:11.841Z,1.40
2018-04-14T09:10:39.039Z,1.23
2018-04-14T09:13:06.797Z,1.10
2018-04-14T09:15:34.568Z,1.30
2018-04-14T09:18:02.652Z,0.97
2018-04-14T09:20:30.685Z,1.10
2018-04-14T09:22:57.875Z,1.20
2018-04-14T09:25:24.973Z,1.23
2018-04-14T09:27:52.221Z,0.83
2018-04-14T09:30:19.303Z,0.80
2018-04-14T09:32:46.323Z,1.07
2018-04-14T09:35:13.978Z,0.80
2018-04-14T09:37:41.793Z,1.20
2018-04-14T09:40:09.864Z,1.17
2018-04-14T09:42:37.740Z,0.90
2018-04-14T09:45:05.024Z,1.13
2018-04-14T09:47:32.054Z,1.30
2018-04-14T09:49:59.081Z,1.03
2018-04-14T09:52:27.300Z,1.30
2018-04-14T09:54:54.477Z,0.90
2018-04-14T09:57:21.654Z,1.57
2018-04-14T09:59:49.436Z,3.80
2018-04-14T10:02:16.493Z,1.13
2018-04-14T10:04:43.748Z,1.20
2018-04-14T10:07:10.943Z,1.30
2018-04-14T10:09:38.002Z,1.20
2018-04-14T10:12:05.061Z,0.70
2018-04-14T10:14:32.849Z,0.97
2018-04-14T10:17:00.829Z,0.63
2018-04-14T10:19:27.916Z,1.40
2018-04-14T10:21:55.713Z,1.00
2018-04-14T10:24:22.891Z,0.70
2018-04-14T10:26:50.685Z,0.90
2018-04-14T10:29:17.700Z,1.00
2018-04-14T10:31:44.701Z,1.07
2018-04-14T10:34:12.088Z,0.90
2018-04-14T10:36:39.936Z,1.10
2018-04-14T10:39:08.315Z,0.90
2018-04-14T10:41:36.071Z,1.13
2018-04-14T10:44:04.025Z,1.00
2018-04-14T10:46:31.808Z,1.23
2018-04-14T10:48:59.580Z,1.27
2018-04-14T10:51:27.514Z,1.37
2018-04-14T10:53:54.556Z,1.80
2018-04-14T10:56:22.392Z,1.23
2018-04-14T10:58:49.560Z,1.13
2018-04-14T11:01:16.744Z,1.33
2018-04-14T11:03:44.426Z,1.57
2018-04-14T11:06:11.529Z,1.30
2018-04-14T11:08:38.922Z,1.03
2018-04-14T11:11:06.737Z,3.00
2018-04-14T11:13:33.822Z,1.50
2018-04-14T11:16:01.693Z,1.63
2018-04-14T11:18:29.764Z,1.80
2018-04-14T11:20:57.107Z,1.47
2018-04-14T11:23:24.148Z,1.70
2018-04-14T11:25:51.205Z,1.90
2018-04-14T11:28:18.298Z,1.90
2018-04-14T11:30:45.329Z,1.20
2018-04-14T11:33:12.398Z,1.43
2018-04-14T11:35:39.563Z,1.33
2018-04-14T11:38:06.641Z,1.33
2018-04-14T11:40:38.049Z,1.13
2018-04-14T11:43:05.337Z,1.33
2018-04-14T11:45:33.298Z,1.17
2018-04-14T11:48:00.515Z,2.00
2018-04-14T11:50:27.628Z,2.60
2018-04-14T11:52:54.863Z,1.57
2018-04-14T11:55:21.962Z,1.30
2018-04-14T11:57:49.200Z,1.90
2018-04-14T12:00:17.037Z,1.27
2018-04-14T12:02:44.142Z,1.33
2018-04-14T12:05:11.381Z,1.60
2018-04-14T12:07:38.506Z,1.30
2018-04-14T12:10:05.630Z,1.27
2018-04-14T12:12:32.711Z,1.20
2018-04-14T12:14:59.908Z,1.37
2018-04-14T12:17:27.756Z,1.50
2018-04-14T12:19:55.489Z,1.43
2018-04-14T12:22:23.976Z,1.50
2018-04-14T12:24:51.848Z,1.50
2018-04-14T12:27:20.041Z,1.33
2018-04-14T12:29:49.661Z,1.30
2018-04-14T12:32:16.969Z,1.43
2018-04-14T12:34:45.135Z,1.97
2018-04-14T12:37:12.268Z,1.43
2018-04-14T12:39:40.197Z,1.50
2018-04-14T12:42:07.522Z,1.27
2018-04-14T12:44:34.743Z,1.30
2018-04-14T12:47:01.930Z,1.60
2018-04-14T12:49:29.058Z,1.17
2018-04-14T12:51:56.279Z,1.70
2018-04-14T12:54:23.399Z,1.20
2018-04-14T12:56:50.579Z,1.13
2018-04-14T12:59:17.831Z,3.40
2018-04-14T13:01:45.621Z,1.50
2018-04-14T13:04:12.808Z,1.80
2018-04-14T13:06:39.976Z,1.30
2018-04-14T13:09:07.041Z,1.23
2018-04-14T13:11:34.113Z,1.93
2018-04-14T13:14:01.193Z,1.47
2018-04-14T13:16:29.001Z,1.23
2018-04-14T13:18:56.525Z,1.97
2018-04-14T13:21:23.668Z,1.77
2018-04-14T13:23:50.726Z,1.53
2018-04-14T13:26:17.751Z,1.60
2018-04-14T13:28:46.053Z,1.40
2018-04-14T13:31:13.851Z,1.30
2018-04-14T13:33:41.685Z,1.70
2018-04-14T13:36:08.865Z,3.07
2018-04-14T13:38:36.088Z,1.50
2018-04-14T13:41:03.117Z,1.30
2018-04-14T13:43:30.172Z,1.20
2018-04-14T13:45:57.989Z,1.80
2018-04-14T13:48:25.018Z,1.97
2018-04-14T13:50:52.787Z,2.33
2018-04-14T13:53:19.813Z,1.63
2018-04-14T13:55:47.577Z,1.60
2018-04-14T13:58:15.364Z,1.70
2018-04-14T14:00:43.188Z,1.33
2018-04-14T14:03:11.217Z,1.70
2018-04-14T14:05:38.244Z,1.50
2018-04-14T14:08:05.520Z,1.67
2018-04-14T14:10:32.762Z,1.50
2018-04-14T14:12:59.997Z,1.37
2018-04-14T14:15:27.225Z,1.13
2018-04-14T14:17:55.205Z,1.50
2018-04-14T14:20:22.292Z,1.60
2018-04-14T14:22:49.296Z,1.50
2018-04-14T14:25:17.630Z,1.40
2018-04-14T14:27:44.734Z,1.40
2018-04-14T14:30:12.542Z,1.50
2018-04-14T14:32:39.766Z,1.60
2018-04-14T14:35:06.910Z,1.30
2018-04-14T14:37:34.081Z,1.57
2018-04-14T14:40:01.899Z,1.40
2018-04-14T14:42:30.035Z,1.60
2018-04-14T14:44:57.160Z,1.80
2018-04-14T14:47:24.406Z,2.20
2018-04-14T14:49:57.805Z,1.80
2018-04-14T14:52:24.887Z,1.63
2018-04-14T14:54:52.031Z,2.10
2018-04-14T14:57:19.136Z,1.60
2018-04-14T14:59:46.319Z,1.83
2018-04-14T15:02:14.284Z,1.63
2018-04-14T15:04:41.530Z,1.50
2018-04-14T15:07:08.664Z,1.93
2018-04-14T15:09:35.844Z,1.70
2018-04-14T15:12:02.968Z,1.67
2018-04-14T15:14:30.030Z,1.80
2018-04-14T15:16:57.039Z,1.60
2018-04-14T15:19:24.790Z,2.60
2018-04-14T15:21:52.541Z,1.80
2018-04-14T15:24:19.544Z,1.90
2018-04-14T15:26:46.569Z,1.50
2018-04-14T15:29:13.593Z,1.70
2018-04-14T15:31:40.803Z,1.50
2018-04-14T15:34:08.948Z,1.70
2018-04-14T15:36:35.992Z,1.60
2018-04-14T15:39:03.598Z,1.40
2018-04-14T15:41:30.621Z,1.80
2018-04-14T15:43:57.649Z,1.50
2018-04-14T15:46:24.785Z,1.53
2018-04-14T15:48:52.085Z,1.50
2018-04-14T15:51:19.913Z,1.80
2018-04-14T15:53:46.963Z,1.17
2018-04-14T15:56:14.193Z,1.40
2018-04-14T15:58:41.305Z,1.37
2018-04-14T16:01:08.288Z,1.30
2018-04-14T16:03:44.626Z,1.20
2018-04-14T16:06:03.124Z,1.37
2018-04-14T16:08:30.152Z,1.57
2018-04-14T16:10:57.452Z,1.50
2018-04-14T16:13:24.802Z,1.30
2018-04-14T16:15:52.951Z,1.60
2018-04-14T16:18:20.156Z,1.93
2018-04-14T16:20:47.360Z,1.40
2018-04-14T16:23:14.532Z,1.50
2018-04-14T16:25:41.761Z,1.37
2018-04-14T16:28:08.838Z,1.50
2018-04-14T16:30:35.857Z,1.77
2018-04-14T16:33:03.176Z,1.47
2018-04-14T16:35:30.508Z,2.00
2018-04-14T16:37:57.812Z,2.30
2018-04-14T16:40:24.885Z,2.03
2018-04-14T16:42:51.872Z,1.63
2018-04-14T16:45:19.610Z,1.50
2018-04-14T16:47:46.619Z,1.67
2018-04-14T16:50:13.883Z,1.40
2018-04-14T16:52:41.701Z,1.50
2018-04-14T16:55:09.661Z,1.70
2018-04-14T16:57:36.723Z,2.00
2018-04-14T17:00:04.788Z,2.00
2018-04-14T17:02:32.150Z,1.63
2018-04-14T17:04:59.357Z,2.00
2018-04-14T17:07:26.592Z,1.60
2018-04-14T17:09:54.396Z,1.70
2018-04-14T17:12:21.417Z,1.93
2018-04-14T17:14:48.769Z,1.43
2018-04-14T17:17:15.826Z,2.27
2018-04-14T17:19:42.839Z,1.83
2018-04-14T17:22:09.849Z,2.23
2018-04-14T17:24:37.876Z,1.70
2018-04-14T17:27:05.268Z,2.10
2018-04-14T17:29:32.505Z,1.40
2018-04-14T17:32:00.441Z,1.70
2018-04-14T17:34:27.609Z,1.43
2018-04-14T17:36:55.776Z,2.30
2018-04-14T17:39:23.713Z,1.70
2018-04-14T17:41:50.800Z,1.90
2018-04-14T17:44:17.864Z,2.20
2018-04-14T17:46:44.883Z,2.50
2018-04-14T17:49:12.152Z,2.70
2018-04-14T17:51:39.600Z,2.87
2018-04-14T17:54:06.725Z,2.17
2018-04-14T17:56:34.720Z,1.83
2018-04-14T17:59:01.976Z,2.00
2018-04-14T18:01:29.043Z,2.07
2018-04-14T18:03:56.337Z,2.20
2018-04-14T18:06:24.206Z,2.50
2018-04-14T18:08:51.212Z,2.57
2018-04-14T18:11:18.240Z,2.30
2018-04-14T18:13:45.528Z,2.57
2018-04-14T18:16:12.784Z,2.10
2018-04-14T18:18:40.056Z,2.17
2018-04-14T18:21:07.109Z,2.00
2018-04-14T18:23:34.393Z,2.07
2018-04-14T18:26:01.517Z,2.00
2018-04-14T18:28:29.185Z,2.47
2018-04-14T18:30:56.345Z,2.93
2018-04-14T18:33:23.648Z,5.20
2018-04-14T18:35:51.704Z,7.30
2018-04-14T18:38:19.519Z,6.70
2018-04-14T18:40:46.525Z,7.30
2018-04-14T18:43:13.701Z,6.57
2018-04-14T18:45:41.693Z,6.70
2018-04-14T18:48:08.880Z,7.23
2018-04-14T18:50:36.150Z,10.27
2018-04-14T18:53:04.046Z,11.93
2018-04-14T18:55:31.188Z,8.53
2018-04-14T18:57:58.461Z,6.63
2018-04-14T19:00:25.737Z,4.87
2018-04-14T19:02:53.244Z,5.20
2018-04-14T19:05:20.661Z,4.60
2018-04-14T19:07:47.860Z,4.33
2018-04-14T19:10:15.157Z,4.70
2018-04-14T19:12:43.141Z,4.60
2018-04-14T19:15:10.335Z,4.33
2018-04-14T19:17:37.638Z,5.23
2018-04-14T19:20:04.969Z,4.80
2018-04-14T19:22:32.128Z,4.70
2018-04-14T19:24:59.124Z,3.70
2018-04-14T19:27:26.371Z,4.50
2018-04-14T19:29:53.424Z,3.87
2018-04-14T19:32:21.419Z,4.17
2018-04-14T19:34:48.678Z,5.07
2018-04-14T19:37:15.725Z,4.43
2018-04-14T19:39:43.750Z,4.67
2018-04-14T19:42:10.861Z,3.87
2018-04-14T19:44:38.149Z,3.93
2018-04-14T19:47:05.239Z,3.50
2018-04-14T19:49:32.988Z,4.07
2018-04-14T19:52:00.736Z,4.80
2018-04-14T19:54:28.559Z,3.93
2018-04-14T19:56:55.726Z,4.13
2018-04-14T19:59:23.060Z,4.40
2018-04-14T20:01:50.056Z,3.80
2018-04-14T20:04:18.025Z,4.87
2018-04-14T20:06:45.252Z,4.80
2018-04-14T20:09:12.518Z,5.97
2018-04-14T20:11:39.800Z,5.73
2018-04-14T20:14:06.862Z,5.23
2018-04-14T20:16:33.901Z,5.20
2018-04-14T20:19:01.070Z,4.60
2018-04-14T20:21:28.289Z,5.10
2018-04-14T20:23:55.532Z,5.90
2018-04-14T20:26:22.696Z,4.00
2018-04-14T20:28:50.037Z,4.00
2018-04-14T20:31:17.536Z,4.77
2018-04-14T20:33:44.727Z,4.00
2018-04-14T20:36:11.801Z,4.13
2018-04-14T20:38:39.584Z,4.30
2018-04-14T20:41:06.759Z,4.40
2018-04-14T20:43:34.562Z,4.50
2018-04-14T20:46:01.781Z,3.47
2018-04-14T20:48:29.059Z,4.67
2018-04-14T20:50:56.999Z,3.30
2018-04-14T20:53:24.106Z,3.93
2018-04-14T20:55:51.324Z,3.90
2018-04-14T20:58:18.436Z,3.00
2018-04-14T21:00:45.701Z,3.57
2018-04-14T21:03:12.941Z,2.90
2018-04-14T21:05:40.767Z,3.23
2018-04-14T21:08:08.525Z,3.53
2018-04-14T21:10:35.844Z,3.23
2018-04-14T21:13:02.981Z,3.40
2018-04-14T21:15:30.140Z,3.57
2018-04-14T21:17:57.308Z,4.57
2018-04-14T21:20:24.364Z,3.37
2018-04-14T21:22:51.397Z,4.33
2018-04-14T21:25:18.588Z,5.00
2018-04-14T21:27:45.681Z,5.10
2018-04-14T21:30:12.990Z,4.63
2018-04-14T21:32:40.272Z,4.83
2018-04-14T21:35:07.293Z,4.10
2018-04-14T21:37:34.603Z,4.20
2018-04-14T21:40:01.778Z,4.33
2018-04-14T21:42:28.810Z,3.60
2018-04-14T21:44:56.101Z,4.40
2018-04-14T21:47:23.223Z,3.50
2018-04-14T21:49:50.463Z,3.80
2018-04-14T21:52:17.587Z,3.57
2018-04-14T21:54:44.580Z,3.00
2018-04-14T21:57:12.333Z,3.37
2018-04-14T21:59:39.582Z,4.17
2018-04-14T22:02:06.796Z,3.93
2018-04-14T22:04:33.816Z,3.80
2018-04-14T22:07:01.008Z,4.30
2018-04-14T22:09:28.141Z,4.17
2018-04-14T22:11:55.330Z,4.03
2018-04-14T22:14:32.686Z,3.50
2018-04-14T22:16:59.932Z,4.17
2018-04-14T22:19:27.799Z,3.90
2018-04-14T22:21:54.788Z,3.53
2018-04-14T22:24:21.802Z,3.63
2018-04-14T22:26:49.071Z,3.20
2018-04-14T22:29:17.049Z,3.80
2018-04-14T22:31:44.129Z,2.90
2018-04-14T22:34:11.137Z,3.53
2018-04-14T22:36:38.160Z,3.50
2018-04-14T22:39:05.197Z,3.50
2018-04-14T22:41:32.385Z,3.80
2018-04-14T22:43:59.546Z,3.60
2018-04-14T22:46:26.555Z,3.90
2018-04-14T22:48:54.616Z,4.10
2018-04-14T22:51:21.814Z,4.17
2018-04-14T22:53:48.891Z,2.87
2018-04-14T22:56:16.111Z,3.80
2018-04-14T22:58:44.072Z,4.50
2018-04-14T23:01:11.198Z,4.53
2018-04-14T23:03:38.369Z,4.90
2018-04-14T23:06:06.302Z,4.77
2018-04-14T23:08:33.505Z,4.30
2018-04-14T23:11:00.612Z,4.37
2018-04-14T23:13:28.534Z,5.80
2018-04-14T23:15:55.668Z,4.70
2018-04-14T23:18:22.913Z,5.03
2018-04-14T23:20:50.125Z,4.67
2018-04-14T23:23:17.136Z,4.20
2018-04-14T23:25:45.164Z,4.27
2018-04-14T23:28:12.257Z,4.20
2018-04-14T23:30:39.484Z,4.57
2018-04-14T23:33:06.822Z,3.93
2018-04-14T23:35:34.614Z,4.67
2018-04-14T23:38:02.638Z,4.50
2018-04-14T23:40:29.753Z,3.97
2018-04-14T23:42:57.659Z,3.60
2018-04-14T23:45:25.578Z,3.80
2018-04-14T23:47:52.718Z,4.90
2018-04-14T23:50:19.796Z,4.07
2018-04-14T23:52:46.812Z,3.97
2018-04-14T23:55:13.804Z,4.57
2018-04-14T23:57:41.076Z,5.17
